sensor_id;sensor_type;location;lat;lon;timestamp;P1;durP1;ratioP1;P2;durP2;ratioP2
74995;SDS011;63545;51.690;5.202;2024-01-27T00:01:16;19.35;;;3.50;;
74995;SDS011;63545;51.690;5.202;2024-01-27T00:03:42;16.60;;;3.30;;
74995;SDS011;63545;51.690;5.202;2024-01-27T00:06:07;18.07;;;3.80;;
74995;SDS011;63545;51.690;5.202;2024-01-27T00:08:32;22.77;;;3.50;;
74995;SDS011;63545;51.690;5.202;2024-01-27T00:10:58;18.45;;;3.83;;
74995;SDS011;63545;51.690;5.202;2024-01-27T00:13:23;16.07;;;3.63;;
74995;SDS011;63545;51.690;5.202;2024-01-27T00:15:49;12.53;;;3.90;;
74995;SDS011;63545;51.690;5.202;2024-01-27T00:18:17;16.97;;;4.03;;
74995;SDS011;63545;51.690;5.202;2024-01-27T00:20:42;19.42;;;4.03;;
74995;SDS011;63545;51.690;5.202;2024-01-27T00:23:08;21.30;;;3.87;;
74995;SDS011;63545;51.690;5.202;2024-01-27T00:25:33;22.03;;;4.13;;
74995;SDS011;63545;51.690;5.202;2024-01-27T00:27:58;20.85;;;3.72;;
74995;SDS011;63545;51.690;5.202;2024-01-27T00:30:24;20.15;;;3.78;;
74995;SDS011;63545;51.690;5.202;2024-01-27T00:32:50;22.80;;;4.60;;
74995;SDS011;63545;51.690;5.202;2024-01-27T00:35:15;18.10;;;3.60;;
74995;SDS011;63545;51.690;5.202;2024-01-27T00:37:41;19.07;;;3.77;;
74995;SDS011;63545;51.690;5.202;2024-01-27T00:40:10;17.53;;;3.90;;
74995;SDS011;63545;51.690;5.202;2024-01-27T00:42:36;15.95;;;3.58;;
74995;SDS011;63545;51.690;5.202;2024-01-27T00:45:01;15.93;;;3.95;;
74995;SDS011;63545;51.690;5.202;2024-01-27T00:47:28;19.45;;;3.78;;
74995;SDS011;63545;51.690;5.202;2024-01-27T00:49:53;18.80;;;3.77;;
74995;SDS011;63545;51.690;5.202;2024-01-27T00:52:19;15.85;;;3.35;;
74995;SDS011;63545;51.690;5.202;2024-01-27T00:54:45;17.80;;;3.40;;
74995;SDS011;63545;51.690;5.202;2024-01-27T00:57:10;21.20;;;4.07;;
74995;SDS011;63545;51.690;5.202;2024-01-27T00:59:35;15.88;;;4.15;;
74995;SDS011;63545;51.690;5.202;2024-01-27T01:02:01;15.30;;;2.87;;
74995;SDS011;63545;51.690;5.202;2024-01-27T01:04:26;20.53;;;3.63;;
74995;SDS011;63545;51.690;5.202;2024-01-27T01:06:52;20.27;;;3.83;;
74995;SDS011;63545;51.690;5.202;2024-01-27T01:09:17;22.50;;;3.65;;
74995;SDS011;63545;51.690;5.202;2024-01-27T01:11:43;22.57;;;4.50;;
74995;SDS011;63545;51.690;5.202;2024-01-27T01:14:08;28.37;;;4.27;;
74995;SDS011;63545;51.690;5.202;2024-01-27T01:16:33;18.77;;;3.70;;
74995;SDS011;63545;51.690;5.202;2024-01-27T01:19:02;16.80;;;3.90;;
74995;SDS011;63545;51.690;5.202;2024-01-27T01:21:27;23.85;;;3.97;;
74995;SDS011;63545;51.690;5.202;2024-01-27T01:23:53;19.33;;;3.50;;
74995;SDS011;63545;51.690;5.202;2024-01-27T01:26:18;19.33;;;4.13;;
74995;SDS011;63545;51.690;5.202;2024-01-27T01:28:44;21.37;;;4.43;;
74995;SDS011;63545;51.690;5.202;2024-01-27T01:31:09;26.00;;;5.00;;
74995;SDS011;63545;51.690;5.202;2024-01-27T01:33:34;18.03;;;4.17;;
74995;SDS011;63545;51.690;5.202;2024-01-27T01:36:00;23.87;;;3.93;;
74995;SDS011;63545;51.690;5.202;2024-01-27T01:38:25;18.67;;;4.43;;
74995;SDS011;63545;51.690;5.202;2024-01-27T01:40:50;20.90;;;5.00;;
74995;SDS011;63545;51.690;5.202;2024-01-27T01:43:15;22.50;;;4.50;;
74995;SDS011;63545;51.690;5.202;2024-01-27T01:45:41;17.07;;;5.40;;
74995;SDS011;63545;51.690;5.202;2024-01-27T01:48:07;25.80;;;5.47;;
74995;SDS011;63545;51.690;5.202;2024-01-27T01:50:32;17.80;;;5.15;;
74995;SDS011;63545;51.690;5.202;2024-01-27T01:52:58;22.23;;;6.03;;
74995;SDS011;63545;51.690;5.202;2024-01-27T01:55:23;23.13;;;5.63;;
74995;SDS011;63545;51.690;5.202;2024-01-27T01:57:49;23.15;;;6.18;;
74995;SDS011;63545;51.690;5.202;2024-01-27T02:00:15;24.48;;;6.53;;
74995;SDS011;63545;51.690;5.202;2024-01-27T02:02:43;18.95;;;5.95;;
74995;SDS011;63545;51.690;5.202;2024-01-27T02:05:09;24.48;;;6.30;;
74995;SDS011;63545;51.690;5.202;2024-01-27T02:07:35;20.37;;;6.40;;
74995;SDS011;63545;51.690;5.202;2024-01-27T02:10:00;20.43;;;6.90;;
74995;SDS011;63545;51.690;5.202;2024-01-27T02:12:27;21.77;;;5.45;;
74995;SDS011;63545;51.690;5.202;2024-01-27T02:14:52;23.60;;;6.30;;
74995;SDS011;63545;51.690;5.202;2024-01-27T02:17:17;21.27;;;6.07;;
74995;SDS011;63545;51.690;5.202;2024-01-27T02:19:42;22.75;;;6.25;;
74995;SDS011;63545;51.690;5.202;2024-01-27T02:22:08;23.67;;;6.27;;
74995;SDS011;63545;51.690;5.202;2024-01-27T02:24:33;18.60;;;6.20;;
74995;SDS011;63545;51.690;5.202;2024-01-27T02:26:59;22.70;;;7.10;;
74995;SDS011;63545;51.690;5.202;2024-01-27T02:29:24;24.83;;;6.83;;
74995;SDS011;63545;51.690;5.202;2024-01-27T02:31:52;27.33;;;7.20;;
74995;SDS011;63545;51.690;5.202;2024-01-27T02:34:17;20.83;;;6.67;;
74995;SDS011;63545;51.690;5.202;2024-01-27T02:36:43;25.70;;;6.90;;
74995;SDS011;63545;51.690;5.202;2024-01-27T02:39:09;25.98;;;6.53;;
74995;SDS011;63545;51.690;5.202;2024-01-27T02:41:34;23.07;;;6.67;;
74995;SDS011;63545;51.690;5.202;2024-01-27T02:44:03;33.17;;;7.82;;
74995;SDS011;63545;51.690;5.202;2024-01-27T02:46:32;22.08;;;7.65;;
74995;SDS011;63545;51.690;5.202;2024-01-27T02:48:57;31.73;;;7.67;;
74995;SDS011;63545;51.690;5.202;2024-01-27T02:51:23;25.38;;;7.45;;
74995;SDS011;63545;51.690;5.202;2024-01-27T02:53:49;26.70;;;7.95;;
74995;SDS011;63545;51.690;5.202;2024-01-27T02:56:15;25.90;;;7.23;;
74995;SDS011;63545;51.690;5.202;2024-01-27T02:58:41;27.27;;;7.65;;
74995;SDS011;63545;51.690;5.202;2024-01-27T03:01:07;25.30;;;7.17;;
74995;SDS011;63545;51.690;5.202;2024-01-27T03:03:32;26.40;;;7.23;;
74995;SDS011;63545;51.690;5.202;2024-01-27T03:05:58;24.83;;;7.20;;
74995;SDS011;63545;51.690;5.202;2024-01-27T03:08:23;24.30;;;7.40;;
74995;SDS011;63545;51.690;5.202;2024-01-27T03:10:49;24.13;;;8.07;;
74995;SDS011;63545;51.690;5.202;2024-01-27T03:13:14;29.20;;;8.00;;
74995;SDS011;63545;51.690;5.202;2024-01-27T03:15:40;25.50;;;8.20;;
74995;SDS011;63545;51.690;5.202;2024-01-27T03:18:07;26.80;;;8.18;;
74995;SDS011;63545;51.690;5.202;2024-01-27T03:20:32;24.77;;;8.77;;
74995;SDS011;63545;51.690;5.202;2024-01-27T03:22:58;28.37;;;9.10;;
74995;SDS011;63545;51.690;5.202;2024-01-27T03:25:24;26.20;;;9.07;;
74995;SDS011;63545;51.690;5.202;2024-01-27T03:27:50;26.50;;;9.02;;
74995;SDS011;63545;51.690;5.202;2024-01-27T03:30:16;30.52;;;8.48;;
74995;SDS011;63545;51.690;5.202;2024-01-27T03:32:41;28.87;;;8.67;;
74995;SDS011;63545;51.690;5.202;2024-01-27T03:35:07;29.80;;;9.03;;
74995;SDS011;63545;51.690;5.202;2024-01-27T03:37:32;24.43;;;9.03;;
74995;SDS011;63545;51.690;5.202;2024-01-27T03:39:59;30.25;;;9.82;;
74995;SDS011;63545;51.690;5.202;2024-01-27T03:42:24;25.80;;;9.03;;
74995;SDS011;63545;51.690;5.202;2024-01-27T03:44:50;27.55;;;8.85;;
74995;SDS011;63545;51.690;5.202;2024-01-27T03:47:15;25.93;;;8.97;;
74995;SDS011;63545;51.690;5.202;2024-01-27T03:49:42;32.95;;;9.25;;
74995;SDS011;63545;51.690;5.202;2024-01-27T03:52:07;25.37;;;8.60;;
74995;SDS011;63545;51.690;5.202;2024-01-27T03:54:32;24.50;;;9.40;;
74995;SDS011;63545;51.690;5.202;2024-01-27T03:56:58;31.53;;;9.77;;
74995;SDS011;63545;51.690;5.202;2024-01-27T03:59:23;26.30;;;9.37;;
74995;SDS011;63545;51.690;5.202;2024-01-27T04:01:49;34.95;;;9.70;;
74995;SDS011;63545;51.690;5.202;2024-01-27T04:04:14;24.10;;;9.18;;
74995;SDS011;63545;51.690;5.202;2024-01-27T04:06:39;29.80;;;9.53;;
74995;SDS011;63545;51.690;5.202;2024-01-27T04:09:05;21.90;;;9.43;;
74995;SDS011;63545;51.690;5.202;2024-01-27T04:11:34;31.00;;;9.80;;
74995;SDS011;63545;51.690;5.202;2024-01-27T04:14:00;30.10;;;10.00;;
74995;SDS011;63545;51.690;5.202;2024-01-27T04:16:26;29.17;;;10.45;;
74995;SDS011;63545;51.690;5.202;2024-01-27T04:18:52;26.02;;;10.57;;
74995;SDS011;63545;51.690;5.202;2024-01-27T04:21:17;30.87;;;10.67;;
74995;SDS011;63545;51.690;5.202;2024-01-27T04:23:42;32.77;;;10.90;;
74995;SDS011;63545;51.690;5.202;2024-01-27T04:26:08;25.07;;;9.67;;
74995;SDS011;63545;51.690;5.202;2024-01-27T04:28:34;34.50;;;9.93;;
74995;SDS011;63545;51.690;5.202;2024-01-27T04:31:00;32.80;;;11.37;;
74995;SDS011;63545;51.690;5.202;2024-01-27T04:33:25;32.53;;;10.17;;
74995;SDS011;63545;51.690;5.202;2024-01-27T04:35:50;32.50;;;9.90;;
74995;SDS011;63545;51.690;5.202;2024-01-27T04:38:16;34.55;;;10.07;;
74995;SDS011;63545;51.690;5.202;2024-01-27T04:40:42;27.40;;;10.93;;
74995;SDS011;63545;51.690;5.202;2024-01-27T04:43:07;38.33;;;10.83;;
74995;SDS011;63545;51.690;5.202;2024-01-27T04:45:32;32.07;;;10.13;;
74995;SDS011;63545;51.690;5.202;2024-01-27T04:47:58;26.92;;;10.00;;
74995;SDS011;63545;51.690;5.202;2024-01-27T04:50:25;27.70;;;10.13;;
74995;SDS011;63545;51.690;5.202;2024-01-27T04:52:51;31.10;;;10.50;;
74995;SDS011;63545;51.690;5.202;2024-01-27T04:55:16;28.33;;;11.07;;
74995;SDS011;63545;51.690;5.202;2024-01-27T04:57:42;28.13;;;10.80;;
74995;SDS011;63545;51.690;5.202;2024-01-27T05:00:07;28.20;;;10.33;;
74995;SDS011;63545;51.690;5.202;2024-01-27T05:02:41;19.95;;;9.77;;
74995;SDS011;63545;51.690;5.202;2024-01-27T05:05:07;28.30;;;10.45;;
74995;SDS011;63545;51.690;5.202;2024-01-27T05:07:32;25.95;;;10.13;;
74995;SDS011;63545;51.690;5.202;2024-01-27T05:09:58;28.95;;;10.68;;
74995;SDS011;63545;51.690;5.202;2024-01-27T05:12:23;33.37;;;10.33;;
74995;SDS011;63545;51.690;5.202;2024-01-27T05:14:49;26.43;;;10.80;;
74995;SDS011;63545;51.690;5.202;2024-01-27T05:17:14;33.63;;;11.73;;
74995;SDS011;63545;51.690;5.202;2024-01-27T05:19:39;33.10;;;10.83;;
74995;SDS011;63545;51.690;5.202;2024-01-27T05:22:05;34.47;;;11.95;;
74995;SDS011;63545;51.690;5.202;2024-01-27T05:24:30;30.33;;;11.80;;
74995;SDS011;63545;51.690;5.202;2024-01-27T05:26:55;34.10;;;11.60;;
74995;SDS011;63545;51.690;5.202;2024-01-27T05:29:21;33.17;;;11.20;;
74995;SDS011;63545;51.690;5.202;2024-01-27T05:31:46;31.27;;;11.60;;
74995;SDS011;63545;51.690;5.202;2024-01-27T05:34:12;22.65;;;11.32;;
74995;SDS011;63545;51.690;5.202;2024-01-27T05:36:37;31.80;;;11.93;;
74995;SDS011;63545;51.690;5.202;2024-01-27T05:39:03;34.13;;;11.50;;
74995;SDS011;63545;51.690;5.202;2024-01-27T05:41:29;34.95;;;11.95;;
74995;SDS011;63545;51.690;5.202;2024-01-27T05:43:55;26.70;;;11.17;;
74995;SDS011;63545;51.690;5.202;2024-01-27T05:46:22;30.27;;;11.63;;
74995;SDS011;63545;51.690;5.202;2024-01-27T05:48:49;29.05;;;10.93;;
74995;SDS011;63545;51.690;5.202;2024-01-27T05:51:16;32.17;;;11.95;;
74995;SDS011;63545;51.690;5.202;2024-01-27T05:53:41;26.60;;;11.13;;
74995;SDS011;63545;51.690;5.202;2024-01-27T05:56:06;26.03;;;10.80;;
74995;SDS011;63545;51.690;5.202;2024-01-27T05:58:32;28.87;;;10.20;;
74995;SDS011;63545;51.690;5.202;2024-01-27T06:00:57;27.33;;;11.60;;
74995;SDS011;63545;51.690;5.202;2024-01-27T06:03:22;27.53;;;11.20;;
74995;SDS011;63545;51.690;5.202;2024-01-27T06:05:48;32.60;;;11.25;;
74995;SDS011;63545;51.690;5.202;2024-01-27T06:08:13;30.08;;;11.85;;
74995;SDS011;63545;51.690;5.202;2024-01-27T06:10:38;37.50;;;12.10;;
74995;SDS011;63545;51.690;5.202;2024-01-27T06:13:04;31.77;;;12.07;;
74995;SDS011;63545;51.690;5.202;2024-01-27T06:15:30;31.80;;;12.10;;
74995;SDS011;63545;51.690;5.202;2024-01-27T06:17:55;31.67;;;13.07;;
74995;SDS011;63545;51.690;5.202;2024-01-27T06:20:21;34.13;;;12.23;;
74995;SDS011;63545;51.690;5.202;2024-01-27T06:22:46;25.50;;;11.43;;
74995;SDS011;63545;51.690;5.202;2024-01-27T06:25:11;32.45;;;12.40;;
74995;SDS011;63545;51.690;5.202;2024-01-27T06:27:37;30.60;;;11.43;;
74995;SDS011;63545;51.690;5.202;2024-01-27T06:30:08;28.02;;;12.13;;
74995;SDS011;63545;51.690;5.202;2024-01-27T06:32:35;33.85;;;11.77;;
74995;SDS011;63545;51.690;5.202;2024-01-27T06:35:00;30.10;;;12.03;;
74995;SDS011;63545;51.690;5.202;2024-01-27T06:37:25;33.00;;;12.17;;
74995;SDS011;63545;51.690;5.202;2024-01-27T06:39:51;27.10;;;11.65;;
74995;SDS011;63545;51.690;5.202;2024-01-27T06:42:16;28.40;;;12.83;;
74995;SDS011;63545;51.690;5.202;2024-01-27T06:44:42;29.93;;;11.30;;
74995;SDS011;63545;51.690;5.202;2024-01-27T06:47:07;32.10;;;11.87;;
74995;SDS011;63545;51.690;5.202;2024-01-27T06:49:32;30.50;;;12.13;;
74995;SDS011;63545;51.690;5.202;2024-01-27T06:51:58;28.17;;;11.50;;
74995;SDS011;63545;51.690;5.202;2024-01-27T06:54:24;25.97;;;11.73;;
74995;SDS011;63545;51.690;5.202;2024-01-27T06:56:49;36.17;;;14.17;;
74995;SDS011;63545;51.690;5.202;2024-01-27T06:59:14;31.83;;;12.80;;
74995;SDS011;63545;51.690;5.202;2024-01-27T07:01:45;26.63;;;12.32;;
74995;SDS011;63545;51.690;5.202;2024-01-27T07:04:13;30.53;;;12.60;;
74995;SDS011;63545;51.690;5.202;2024-01-27T07:06:39;33.08;;;13.10;;
74995;SDS011;63545;51.690;5.202;2024-01-27T07:09:04;29.37;;;13.50;;
74995;SDS011;63545;51.690;5.202;2024-01-27T07:11:31;38.03;;;14.57;;
74995;SDS011;63545;51.690;5.202;2024-01-27T07:13:57;35.73;;;14.30;;
74995;SDS011;63545;51.690;5.202;2024-01-27T07:16:23;32.85;;;13.43;;
74995;SDS011;63545;51.690;5.202;2024-01-27T07:18:49;30.40;;;13.15;;
74995;SDS011;63545;51.690;5.202;2024-01-27T07:21:15;37.33;;;13.63;;
74995;SDS011;63545;51.690;5.202;2024-01-27T07:23:44;30.60;;;13.98;;
74995;SDS011;63545;51.690;5.202;2024-01-27T07:26:09;36.93;;;13.90;;
74995;SDS011;63545;51.690;5.202;2024-01-27T07:28:35;34.38;;;13.48;;
74995;SDS011;63545;51.690;5.202;2024-01-27T07:31:01;32.65;;;13.57;;
74995;SDS011;63545;51.690;5.202;2024-01-27T07:33:26;30.98;;;13.07;;
74995;SDS011;63545;51.690;5.202;2024-01-27T07:35:52;33.03;;;13.30;;
74995;SDS011;63545;51.690;5.202;2024-01-27T07:38:17;30.93;;;14.07;;
74995;SDS011;63545;51.690;5.202;2024-01-27T07:40:42;38.13;;;13.77;;
74995;SDS011;63545;51.690;5.202;2024-01-27T07:43:08;27.77;;;13.00;;
74995;SDS011;63545;51.690;5.202;2024-01-27T07:45:33;37.40;;;13.73;;
74995;SDS011;63545;51.690;5.202;2024-01-27T07:47:58;36.83;;;13.77;;
74995;SDS011;63545;51.690;5.202;2024-01-27T07:50:24;32.97;;;13.77;;
74995;SDS011;63545;51.690;5.202;2024-01-27T07:52:49;28.90;;;13.35;;
74995;SDS011;63545;51.690;5.202;2024-01-27T07:55:14;36.73;;;14.30;;
74995;SDS011;63545;51.690;5.202;2024-01-27T07:57:42;29.08;;;14.25;;
74995;SDS011;63545;51.690;5.202;2024-01-27T08:00:07;38.30;;;13.27;;
74995;SDS011;63545;51.690;5.202;2024-01-27T08:02:33;36.80;;;14.47;;
74995;SDS011;63545;51.690;5.202;2024-01-27T08:04:58;33.78;;;14.10;;
74995;SDS011;63545;51.690;5.202;2024-01-27T08:07:24;34.87;;;13.87;;
74995;SDS011;63545;51.690;5.202;2024-01-27T08:09:49;28.40;;;12.93;;
74995;SDS011;63545;51.690;5.202;2024-01-27T08:12:14;36.23;;;13.90;;
74995;SDS011;63545;51.690;5.202;2024-01-27T08:14:40;31.80;;;14.33;;
74995;SDS011;63545;51.690;5.202;2024-01-27T08:17:05;27.47;;;13.83;;
74995;SDS011;63545;51.690;5.202;2024-01-27T08:19:31;31.65;;;13.80;;
74995;SDS011;63545;51.690;5.202;2024-01-27T08:21:56;36.58;;;14.32;;
74995;SDS011;63545;51.690;5.202;2024-01-27T08:24:22;37.40;;;13.87;;
74995;SDS011;63545;51.690;5.202;2024-01-27T08:26:49;38.35;;;14.85;;
74995;SDS011;63545;51.690;5.202;2024-01-27T08:29:14;42.00;;;14.90;;
74995;SDS011;63545;51.690;5.202;2024-01-27T08:31:40;38.63;;;14.57;;
74995;SDS011;63545;51.690;5.202;2024-01-27T08:34:05;36.03;;;14.50;;
74995;SDS011;63545;51.690;5.202;2024-01-27T08:36:31;31.77;;;14.27;;
74995;SDS011;63545;51.690;5.202;2024-01-27T08:38:57;34.42;;;14.27;;
74995;SDS011;63545;51.690;5.202;2024-01-27T08:41:22;37.10;;;15.13;;
74995;SDS011;63545;51.690;5.202;2024-01-27T08:43:48;45.33;;;15.97;;
74995;SDS011;63545;51.690;5.202;2024-01-27T08:46:13;39.60;;;15.57;;
74995;SDS011;63545;51.690;5.202;2024-01-27T08:48:40;39.58;;;15.95;;
74995;SDS011;63545;51.690;5.202;2024-01-27T08:51:08;35.15;;;16.52;;
74995;SDS011;63545;51.690;5.202;2024-01-27T08:53:34;36.20;;;16.17;;
74995;SDS011;63545;51.690;5.202;2024-01-27T08:56:00;36.22;;;16.55;;
74995;SDS011;63545;51.690;5.202;2024-01-27T08:58:26;40.83;;;16.40;;
74995;SDS011;63545;51.690;5.202;2024-01-27T09:00:51;42.83;;;16.35;;
74995;SDS011;63545;51.690;5.202;2024-01-27T09:03:17;36.60;;;16.33;;
74995;SDS011;63545;51.690;5.202;2024-01-27T09:05:45;41.80;;;15.90;;
74995;SDS011;63545;51.690;5.202;2024-01-27T09:08:11;37.05;;;14.82;;
74995;SDS011;63545;51.690;5.202;2024-01-27T09:10:36;41.57;;;16.40;;
74995;SDS011;63545;51.690;5.202;2024-01-27T09:13:01;35.47;;;16.27;;
74995;SDS011;63545;51.690;5.202;2024-01-27T09:15:27;37.97;;;15.98;;
74995;SDS011;63545;51.690;5.202;2024-01-27T09:17:52;40.60;;;16.38;;
74995;SDS011;63545;51.690;5.202;2024-01-27T09:20:18;38.27;;;15.00;;
74995;SDS011;63545;51.690;5.202;2024-01-27T09:22:44;40.13;;;15.05;;
74995;SDS011;63545;51.690;5.202;2024-01-27T09:25:12;34.20;;;16.38;;
74995;SDS011;63545;51.690;5.202;2024-01-27T09:27:37;38.97;;;15.75;;
74995;SDS011;63545;51.690;5.202;2024-01-27T09:30:03;34.33;;;15.30;;
74995;SDS011;63545;51.690;5.202;2024-01-27T09:32:30;38.20;;;15.65;;
74995;SDS011;63545;51.690;5.202;2024-01-27T09:34:55;43.10;;;14.90;;
74995;SDS011;63545;51.690;5.202;2024-01-27T09:37:20;35.73;;;14.27;;
74995;SDS011;63545;51.690;5.202;2024-01-27T09:39:46;36.67;;;14.10;;
74995;SDS011;63545;51.690;5.202;2024-01-27T09:42:12;34.43;;;13.97;;
74995;SDS011;63545;51.690;5.202;2024-01-27T09:44:38;33.90;;;14.25;;
74995;SDS011;63545;51.690;5.202;2024-01-27T09:47:05;37.53;;;13.95;;
74995;SDS011;63545;51.690;5.202;2024-01-27T09:49:30;33.33;;;13.57;;
74995;SDS011;63545;51.690;5.202;2024-01-27T09:51:56;32.17;;;13.48;;
74995;SDS011;63545;51.690;5.202;2024-01-27T09:54:21;34.13;;;14.30;;
74995;SDS011;63545;51.690;5.202;2024-01-27T09:56:47;39.07;;;15.13;;
74995;SDS011;63545;51.690;5.202;2024-01-27T09:59:14;31.60;;;13.50;;
74995;SDS011;63545;51.690;5.202;2024-01-27T10:01:43;32.28;;;13.20;;
74995;SDS011;63545;51.690;5.202;2024-01-27T10:04:08;27.65;;;13.45;;
74995;SDS011;63545;51.690;5.202;2024-01-27T10:06:34;30.90;;;12.17;;
74995;SDS011;63545;51.690;5.202;2024-01-27T10:09:00;29.93;;;13.27;;
74995;SDS011;63545;51.690;5.202;2024-01-27T10:11:25;32.65;;;13.52;;
74995;SDS011;63545;51.690;5.202;2024-01-27T10:13:55;34.42;;;12.55;;
74995;SDS011;63545;51.690;5.202;2024-01-27T10:16:22;29.90;;;12.65;;
74995;SDS011;63545;51.690;5.202;2024-01-27T10:18:58;29.20;;;11.97;;
74995;SDS011;63545;51.690;5.202;2024-01-27T10:21:24;32.17;;;12.68;;
74995;SDS011;63545;51.690;5.202;2024-01-27T10:23:51;29.52;;;11.90;;
74995;SDS011;63545;51.690;5.202;2024-01-27T10:26:16;25.23;;;12.80;;
74995;SDS011;63545;51.690;5.202;2024-01-27T10:28:42;30.77;;;11.60;;
74995;SDS011;63545;51.690;5.202;2024-01-27T10:31:10;34.43;;;10.80;;
74995;SDS011;63545;51.690;5.202;2024-01-27T10:33:36;28.60;;;11.32;;
74995;SDS011;63545;51.690;5.202;2024-01-27T10:36:02;23.88;;;11.05;;
74995;SDS011;63545;51.690;5.202;2024-01-27T10:38:35;31.07;;;11.93;;
74995;SDS011;63545;51.690;5.202;2024-01-27T10:41:04;30.48;;;11.18;;
74995;SDS011;63545;51.690;5.202;2024-01-27T10:43:32;29.50;;;11.05;;
74995;SDS011;63545;51.690;5.202;2024-01-27T10:46:00;26.03;;;10.60;;
74995;SDS011;63545;51.690;5.202;2024-01-27T10:48:26;28.42;;;10.48;;
74995;SDS011;63545;51.690;5.202;2024-01-27T10:50:51;33.50;;;10.60;;
74995;SDS011;63545;51.690;5.202;2024-01-27T10:53:23;28.45;;;10.52;;
74995;SDS011;63545;51.690;5.202;2024-01-27T10:55:57;24.93;;;10.23;;
74995;SDS011;63545;51.690;5.202;2024-01-27T10:58:23;25.92;;;8.75;;
74995;SDS011;63545;51.690;5.202;2024-01-27T11:00:50;23.20;;;9.82;;
74995;SDS011;63545;51.690;5.202;2024-01-27T11:03:15;24.98;;;9.90;;
74995;SDS011;63545;51.690;5.202;2024-01-27T11:05:43;28.20;;;9.13;;
74995;SDS011;63545;51.690;5.202;2024-01-27T11:08:09;27.60;;;9.20;;
74995;SDS011;63545;51.690;5.202;2024-01-27T11:10:37;19.67;;;8.43;;
74995;SDS011;63545;51.690;5.202;2024-01-27T11:13:04;20.45;;;8.02;;
74995;SDS011;63545;51.690;5.202;2024-01-27T11:15:29;21.83;;;7.60;;
74995;SDS011;63545;51.690;5.202;2024-01-27T11:17:58;21.48;;;7.28;;
74995;SDS011;63545;51.690;5.202;2024-01-27T11:20:25;13.85;;;6.80;;
74995;SDS011;63545;51.690;5.202;2024-01-27T11:22:50;21.40;;;7.40;;
74995;SDS011;63545;51.690;5.202;2024-01-27T11:25:17;21.85;;;6.80;;
74995;SDS011;63545;51.690;5.202;2024-01-27T11:27:44;19.95;;;5.93;;
74995;SDS011;63545;51.690;5.202;2024-01-27T11:30:27;23.83;;;6.20;;
74995;SDS011;63545;51.690;5.202;2024-01-27T11:32:54;24.20;;;6.47;;
74995;SDS011;63545;51.690;5.202;2024-01-27T11:35:20;18.73;;;5.80;;
74995;SDS011;63545;51.690;5.202;2024-01-27T11:37:45;19.50;;;5.93;;
74995;SDS011;63545;51.690;5.202;2024-01-27T11:40:11;15.87;;;5.50;;
74995;SDS011;63545;51.690;5.202;2024-01-27T11:42:36;25.73;;;5.88;;
74995;SDS011;63545;51.690;5.202;2024-01-27T11:45:02;25.77;;;5.57;;
74995;SDS011;63545;51.690;5.202;2024-01-27T11:47:28;21.42;;;4.80;;
74995;SDS011;63545;51.690;5.202;2024-01-27T11:49:55;20.95;;;5.07;;
74995;SDS011;63545;51.690;5.202;2024-01-27T11:52:22;15.17;;;4.90;;
74995;SDS011;63545;51.690;5.202;2024-01-27T11:54:57;19.13;;;5.00;;
74995;SDS011;63545;51.690;5.202;2024-01-27T11:57:24;19.88;;;4.70;;
74995;SDS011;63545;51.690;5.202;2024-01-27T11:59:50;13.45;;;4.07;;
74995;SDS011;63545;51.690;5.202;2024-01-27T12:02:16;22.02;;;5.40;;
74995;SDS011;63545;51.690;5.202;2024-01-27T12:04:42;18.00;;;4.80;;
74995;SDS011;63545;51.690;5.202;2024-01-27T12:07:07;18.95;;;4.70;;
74995;SDS011;63545;51.690;5.202;2024-01-27T12:09:33;19.90;;;4.60;;
74995;SDS011;63545;51.690;5.202;2024-01-27T12:11:58;22.13;;;5.27;;
74995;SDS011;63545;51.690;5.202;2024-01-27T12:14:24;20.13;;;4.57;;
74995;SDS011;63545;51.690;5.202;2024-01-27T12:16:50;18.10;;;4.57;;
74995;SDS011;63545;51.690;5.202;2024-01-27T12:19:16;16.05;;;4.68;;
74995;SDS011;63545;51.690;5.202;2024-01-27T12:21:48;19.93;;;5.00;;
74995;SDS011;63545;51.690;5.202;2024-01-27T12:24:16;20.13;;;4.60;;
74995;SDS011;63545;51.690;5.202;2024-01-27T12:26:43;22.95;;;5.38;;
74995;SDS011;63545;51.690;5.202;2024-01-27T12:29:08;14.10;;;4.57;;
74995;SDS011;63545;51.690;5.202;2024-01-27T12:31:33;14.57;;;4.97;;
74995;SDS011;63545;51.690;5.202;2024-01-27T12:33:59;17.63;;;4.73;;
74995;SDS011;63545;51.690;5.202;2024-01-27T12:36:24;14.63;;;4.73;;
74995;SDS011;63545;51.690;5.202;2024-01-27T12:38:53;19.83;;;5.10;;
74995;SDS011;63545;51.690;5.202;2024-01-27T12:41:26;17.50;;;5.10;;
74995;SDS011;63545;51.690;5.202;2024-01-27T12:43:52;19.75;;;5.15;;
74995;SDS011;63545;51.690;5.202;2024-01-27T12:46:18;23.88;;;5.50;;
74995;SDS011;63545;51.690;5.202;2024-01-27T12:48:44;18.40;;;5.30;;
74995;SDS011;63545;51.690;5.202;2024-01-27T12:51:10;18.73;;;5.22;;
74995;SDS011;63545;51.690;5.202;2024-01-27T12:53:35;16.00;;;4.70;;
74995;SDS011;63545;51.690;5.202;2024-01-27T12:56:00;19.23;;;4.90;;
74995;SDS011;63545;51.690;5.202;2024-01-27T12:58:25;16.93;;;4.90;;
74995;SDS011;63545;51.690;5.202;2024-01-27T13:00:51;16.33;;;5.03;;
74995;SDS011;63545;51.690;5.202;2024-01-27T13:03:16;21.47;;;4.90;;
74995;SDS011;63545;51.690;5.202;2024-01-27T13:05:42;22.03;;;5.40;;
74995;SDS011;63545;51.690;5.202;2024-01-27T13:08:08;15.37;;;4.47;;
74995;SDS011;63545;51.690;5.202;2024-01-27T13:10:33;18.75;;;4.82;;
74995;SDS011;63545;51.690;5.202;2024-01-27T13:12:59;19.40;;;4.70;;
74995;SDS011;63545;51.690;5.202;2024-01-27T13:15:24;20.50;;;4.87;;
74995;SDS011;63545;51.690;5.202;2024-01-27T13:17:51;19.67;;;5.25;;
74995;SDS011;63545;51.690;5.202;2024-01-27T13:20:16;18.83;;;5.57;;
74995;SDS011;63545;51.690;5.202;2024-01-27T13:22:42;19.95;;;4.82;;
74995;SDS011;63545;51.690;5.202;2024-01-27T13:25:08;17.42;;;5.13;;
74995;SDS011;63545;51.690;5.202;2024-01-27T13:27:33;18.00;;;5.17;;
74995;SDS011;63545;51.690;5.202;2024-01-27T13:29:59;23.03;;;5.10;;
74995;SDS011;63545;51.690;5.202;2024-01-27T13:32:24;18.93;;;5.17;;
74995;SDS011;63545;51.690;5.202;2024-01-27T13:34:51;25.08;;;5.32;;
74995;SDS011;63545;51.690;5.202;2024-01-27T13:37:16;22.52;;;5.13;;
74995;SDS011;63545;51.690;5.202;2024-01-27T13:39:42;18.47;;;5.13;;
74995;SDS011;63545;51.690;5.202;2024-01-27T13:42:08;19.58;;;5.30;;
74995;SDS011;63545;51.690;5.202;2024-01-27T13:44:33;16.80;;;4.80;;
74995;SDS011;63545;51.690;5.202;2024-01-27T13:47:02;16.63;;;4.60;;
74995;SDS011;63545;51.690;5.202;2024-01-27T13:49:29;18.37;;;5.33;;
74995;SDS011;63545;51.690;5.202;2024-01-27T13:51:55;17.25;;;4.90;;
74995;SDS011;63545;51.690;5.202;2024-01-27T13:54:20;23.73;;;5.13;;
74995;SDS011;63545;51.690;5.202;2024-01-27T13:56:46;16.70;;;4.93;;
74995;SDS011;63545;51.690;5.202;2024-01-27T13:59:11;20.17;;;5.27;;
74995;SDS011;63545;51.690;5.202;2024-01-27T14:01:36;15.93;;;4.55;;
74995;SDS011;63545;51.690;5.202;2024-01-27T14:04:02;20.93;;;4.70;;
74995;SDS011;63545;51.690;5.202;2024-01-27T14:06:27;18.70;;;4.87;;
74995;SDS011;63545;51.690;5.202;2024-01-27T14:08:53;20.43;;;5.03;;
74995;SDS011;63545;51.690;5.202;2024-01-27T14:11:18;25.30;;;5.70;;
74995;SDS011;63545;51.690;5.202;2024-01-27T14:13:44;17.95;;;5.45;;
74995;SDS011;63545;51.690;5.202;2024-01-27T14:16:09;24.67;;;5.30;;
74995;SDS011;63545;51.690;5.202;2024-01-27T14:18:34;19.80;;;4.80;;
74995;SDS011;63545;51.690;5.202;2024-01-27T14:21:00;14.67;;;4.90;;